Time;durP1;ratioP1;P1;durP2;ratioP2;P2;SDS_P1;SDS_P2;PMS_P1;PMS_P2;Temp;Humidity;BMP_temperature;BMP_pressure;BME280_temperature;BME280_humidity;BME280_pressure;Samples;Min_cycle;Max_cycle;Signal;HPM_P1;HPM_P2
2023/08/27 00:01:38;;;;;;;6.18;5.57;;;;;;;20.55;91.35;95378.31;6273337;22;20192;-81
2023/08/27 00:04:04;;;;;;;2.28;2.08;;;;;;;20.48;89.72;95363.84;6274611;22;20180;-81
2023/08/27 00:06:32;;;;;;;3.92;2.75;;;;;;;20.43;89.68;95355.91;6274024;22;20194;-82
2023/08/27 00:08:58;;;;;;;2.95;1.70;;;;;;;20.50;88.56;95339.03;6274143;22;20207;-81
2023/08/27 00:11:25;;;;;;;5.93;5.47;;;;;;;20.53;88.78;95335.13;6274037;22;20192;-81
2023/08/27 00:13:51;;;;;;;11.63;10.55;;;;;;;20.51;89.94;95342.44;6273673;22;20187;-81
2023/08/27 00:16:18;;;;;;;2.95;2.65;;;;;;;20.42;91.29;95360.38;6274162;22;20176;-81
2023/08/27 00:18:44;;;;;;;9.80;8.20;;;;;;;20.46;91.32;95358.06;6273509;22;20199;-81
2023/08/27 00:21:10;;;;;;;13.48;10.57;;;;;;;20.54;90.82;95352.41;6273406;22;20519;-82
2023/08/27 00:23:39;;;;;;;12.23;10.20;;;;;;;20.54;91.48;95357.66;6273301;22;20180;-82
2023/08/27 00:26:05;;;;;;;3.33;2.25;;;;;;;20.51;90.65;95334.59;6273959;22;20176;-82
2023/08/27 00:28:31;;;;;;;3.67;2.40;;;;;;;20.40;92.04;95351.22;6273983;22;20375;-82
2023/08/27 00:31:01;;;;;;;2.60;2.10;;;;;;;20.37;90.81;95357.72;6274080;22;20196;-81
2023/08/27 00:33:28;;;;;;;2.75;1.77;;;;;;;20.40;89.80;95335.50;6274227;22;20230;-81
2023/08/27 00:35:54;;;;;;;2.35;2.15;;;;;;;20.40;89.12;95340.75;6273685;22;20208;-81
2023/08/27 00:38:21;;;;;;;4.22;2.00;;;;;;;20.40;89.47;95335.50;6274333;22;20180;-82
2023/08/27 00:40:48;;;;;;;2.30;1.88;;;;;;;20.33;89.83;95323.38;6273876;22;20192;-81
2023/08/27 00:43:15;;;;;;;2.40;2.20;;;;;;;20.26;91.83;95340.25;6273041;22;20180;-81
2023/08/27 00:45:42;;;;;;;2.45;2.25;;;;;;;20.24;92.34;95337.09;6273716;22;20179;-81
2023/08/27 00:48:08;;;;;;;3.03;2.00;;;;;;;20.28;90.75;95323.31;6274080;22;20490;-81
2023/08/27 00:50:35;;;;;;;2.85;2.08;;;;;;;20.24;90.85;95316.97;6272874;22;20196;-81
2023/08/27 00:53:02;;;;;;;3.42;2.00;;;;;;;20.17;91.85;95326.84;6274075;22;20179;-81
2023/08/27 00:55:28;;;;;;;2.70;2.10;;;;;;;20.23;92.03;95331.06;6273737;22;20172;-81
2023/08/27 00:57:56;;;;;;;3.63;2.47;;;;;;;20.28;91.86;95319.91;6273170;22;20176;-81
2023/08/27 01:00:23;;;;;;;2.00;1.80;;;;;;;20.26;92.62;95319.34;6273297;22;20535;-81
2023/08/27 01:02:50;;;;;;;2.28;1.90;;;;;;;20.16;91.28;95296.50;6272627;22;20178;-82
2023/08/27 01:05:17;;;;;;;2.03;1.70;;;;;;;20.10;91.82;95281.78;6273575;22;20509;-81
2023/08/27 01:07:49;;;;;;;4.15;1.90;;;;;;;19.90;92.82;95290.16;6272640;22;20172;-81
2023/08/27 01:10:23;;;;;;;2.20;2.00;;;;;;;19.78;93.44;95299.13;6273912;22;20375;-81
2023/08/27 01:13:01;;;;;;;3.45;1.92;;;;;;;19.64;94.06;95309.91;6273051;22;20211;-81
2023/08/27 01:15:28;;;;;;;2.78;1.95;;;;;;;19.79;94.79;95322.41;6273383;22;20160;-81
2023/08/27 01:17:56;;;;;;;3.40;2.03;;;;;;;19.81;94.34;95315.13;6273715;22;20175;-81
2023/08/27 01:20:22;;;;;;;1.77;1.67;;;;;;;19.93;93.98;95326.25;6275041;22;20227;-81
2023/08/27 01:22:50;;;;;;;2.45;1.58;;;;;;;19.93;93.73;95330.69;6274341;22;20172;-81
2023/08/27 01:25:20;;;;;;;3.47;1.90;;;;;;;19.85;93.15;95315.41;6274253;22;20183;-81
2023/08/27 01:27:51;;;;;;;2.55;1.70;;;;;;;19.64;94.80;95322.97;6273056;22;20173;-81
2023/08/27 01:30:23;;;;;;;1.83;1.73;;;;;;;19.67;95.75;95324.31;6272901;22;20671;-81
2023/08/27 01:32:57;;;;;;;1.98;1.70;;;;;;;19.66;96.75;95330.56;6272504;22;20215;-81
2023/08/27 01:35:24;;;;;;;1.70;1.60;;;;;;;19.58;97.98;95338.81;6272277;22;20167;-81
2023/08/27 01:37:52;;;;;;;3.25;1.67;;;;;;;19.56;99.15;95346.09;6272296;22;20543;-82
2023/08/27 01:40:19;;;;;;;2.33;1.73;;;;;;;19.65;99.39;95332.38;6273022;22;20199;-81
2023/08/27 01:42:45;;;;;;;1.52;1.42;;;;;;;19.57;98.13;95332.81;6272675;22;20167;-81
2023/08/27 01:45:13;;;;;;;2.13;1.50;;;;;;;19.67;97.33;95330.31;6273491;22;20176;-82
2023/08/27 01:47:39;;;;;;;2.88;1.65;;;;;;;19.73;99.05;95349.50;6273223;22;20208;-81
2023/08/27 01:50:07;;;;;;;4.22;1.73;;;;;;;19.81;99.01;95351.72;6273490;22;20227;-81
2023/08/27 01:52:35;;;;;;;1.85;1.75;;;;;;;19.94;96.94;95327.84;6272345;22;20249;-81
2023/08/27 01:55:04;;;;;;;1.83;1.50;;;;;;;20.01;97.03;95325.81;6272269;22;20176;-81
2023/08/27 01:57:30;;;;;;;1.63;1.52;;;;;;;20.07;97.86;95325.91;6272794;22;20497;-81
2023/08/27 01:59:57;;;;;;;2.33;1.60;;;;;;;20.23;96.56;95331.06;6272341;22;20204;-81
2023/08/27 02:02:23;;;;;;;3.97;1.70;;;;;;;20.26;95.77;95324.56;6272272;22;20179;-81
2023/08/27 02:04:49;;;;;;;3.03;1.75;;;;;;;20.30;95.54;95308.16;6273073;22;20180;-81
2023/08/27 02:07:17;;;;;;;4.20;1.90;;;;;;;20.28;97.32;95327.75;6272747;22;20218;-82
2023/08/27 02:09:44;;;;;;;1.88;1.70;;;;;;;20.25;98.70;95355.16;6273045;22;20192;-81
2023/08/27 02:12:12;;;;;;;2.60;1.70;;;;;;;20.28;97.38;95331.16;6272229;22;20527;-81
2023/08/27 02:14:38;;;;;;;1.90;1.65;;;;;;;20.33;95.74;95312.13;6272806;22;20183;-81
2023/08/27 02:17:05;;;;;;;3.78;2.00;;;;;;;20.35;96.45;95323.91;6272473;22;20175;-81
2023/08/27 02:19:31;;;;;;;1.88;1.70;;;;;;;20.40;96.44;95319.81;6273624;22;20245;-81
2023/08/27 02:21:58;;;;;;;1.65;1.50;;;;;;;20.47;94.51;95296.88;6273347;22;20176;-81
2023/08/27 02:24:24;;;;;;;3.92;1.88;;;;;;;20.46;95.75;95306.53;6272845;22;20176;-81
2023/08/27 02:26:50;;;;;;;3.92;1.90;;;;;;;20.46;96.77;95327.47;6272060;22;20523;-82
2023/08/27 02:29:18;;;;;;;2.70;1.73;;;;;;;20.49;97.06;95347.91;6272411;22;20198;-82
2023/08/27 02:31:45;;;;;;;2.53;1.58;;;;;;;20.48;96.79;95338.47;6272098;22;20196;-81
2023/08/27 02:34:11;;;;;;;3.38;1.90;;;;;;;20.49;95.90;95321.75;6272085;22;20183;-82
2023/08/27 02:36:37;;;;;;;2.67;1.88;;;;;;;20.48;94.96;95307.09;6272496;22;20182;-82
2023/08/27 02:39:04;;;;;;;2.28;1.70;;;;;;;20.50;95.32;95325.16;6271780;22;20203;-81
2023/08/27 02:41:30;;;;;;;1.80;1.65;;;;;;;20.48;95.22;95319.38;6272428;22;20168;-82
2023/08/27 02:43:57;;;;;;;2.00;1.90;;;;;;;20.49;96.33;95341.88;6271601;22;20207;-82
2023/08/27 02:46:24;;;;;;;2.28;1.80;;;;;;;20.47;95.82;95339.50;6271243;22;20187;-81
2023/08/27 02:48:51;;;;;;;2.83;1.60;;;;;;;20.45;95.42;95331.13;6274511;22;20176;-82
2023/08/27 02:51:17;;;;;;;3.63;1.70;;;;;;;20.45;95.40;95328.50;6274554;22;20514;-81
2023/08/27 02:53:44;;;;;;;2.22;1.60;;;;;;;20.40;95.20;95328.44;6274286;22;20176;-81
2023/08/27 02:56:10;;;;;;;2.60;1.90;;;;;;;20.40;95.36;95332.91;6275172;22;20172;-81
2023/08/27 02:58:36;;;;;;;2.75;1.80;;;;;;;20.30;95.54;95329.09;6274430;22;20501;-81
2023/08/27 03:01:03;;;;;;;1.90;1.75;;;;;;;20.28;96.76;95328.53;6273375;22;20227;-81
2023/08/27 03:03:31;;;;;;;2.08;1.65;;;;;;;20.31;97.79;95353.41;6275626;22;20176;-82
2023/08/27 03:05:58;;;;;;;2.83;1.92;;;;;;;20.25;98.13;95351.75;6277419;22;20172;-82
2023/08/27 03:08:24;;;;;;;2.28;1.90;;;;;;;20.32;96.84;95339.31;6274446;22;20172;-81
2023/08/27 03:10:51;;;;;;;3.95;1.70;;;;;;;20.35;96.24;95323.91;6274402;22;20196;-82
2023/08/27 03:13:17;;;;;;;3.42;1.65;;;;;;;20.35;96.08;95330.97;6273887;22;20242;-81
2023/08/27 03:15:44;;;;;;;2.90;1.83;;;;;;;20.39;96.65;95341.78;6273293;22;20172;-82
2023/08/27 03:18:10;;;;;;;1.92;1.73;;;;;;;20.40;97.75;95349.34;6274228;22;20176;-82
2023/08/27 03:20:38;;;;;;;3.17;1.95;;;;;;;20.40;96.97;95351.22;6275051;22;20203;-82
2023/08/27 03:23:05;;;;;;;3.60;2.03;;;;;;;20.38;96.42;95346.22;6274245;22;20172;-81
2023/08/27 03:25:31;;;;;;;3.20;2.30;;;;;;;20.40;96.87;95366.91;6274456;22;20180;-81
2023/08/27 03:27:59;;;;;;;3.33;2.03;;;;;;;20.37;96.68;95360.31;6274218;22;20172;-81
2023/08/27 03:30:25;;;;;;;2.30;1.98;;;;;;;20.38;97.17;95379.41;6274087;22;20204;-81
2023/08/27 03:32:52;;;;;;;3.15;2.05;;;;;;;20.38;97.25;95382.03;6273526;22;20210;-81
2023/08/27 03:35:18;;;;;;;3.75;2.28;;;;;;;20.39;97.14;95383.63;6274433;22;20183;-81
2023/08/27 03:37:46;;;;;;;4.75;1.90;;;;;;;20.36;97.70;95390.09;6273523;22;20505;-81
2023/08/27 03:40:13;;;;;;;2.10;1.90;;;;;;;20.22;98.86;95389.63;6273842;22;20203;-81
2023/08/27 03:42:39;;;;;;;4.00;2.17;;;;;;;20.24;98.41;95363.25;6274094;22;20172;-81
2023/08/27 03:45:06;;;;;;;2.65;1.90;;;;;;;20.11;100.00;95380.06;6273961;22;20188;-81
2023/08/27 03:47:33;;;;;;;3.08;2.03;;;;;;;20.11;100.00;95397.59;6274002;22;20512;-81
2023/08/27 03:49:59;;;;;;;3.60;2.10;;;;;;;20.19;100.00;95405.81;6274662;22;20192;-81
2023/08/27 03:52:26;;;;;;;2.60;2.08;;;;;;;20.25;100.00;95401.44;6274043;22;20238;-81
2023/08/27 03:54:54;;;;;;;3.33;2.22;;;;;;;20.28;100.00;95382.66;6274165;22;20172;-81
2023/08/27 03:57:20;;;;;;;3.95;2.30;;;;;;;20.13;100.00;95379.84;6274408;22;20177;-81
2023/08/27 03:59:46;;;;;;;3.58;2.03;;;;;;;20.16;100.00;95411.53;6273170;22;20242;-81
2023/08/27 04:02:13;;;;;;;3.53;2.10;;;;;;;20.20;100.00;95410.03;6273599;22;20291;-81
2023/08/27 04:04:39;;;;;;;2.28;2.00;;;;;;;20.22;100.00;95401.91;6273913;22;20172;-81
2023/08/27 04:07:06;;;;;;;2.28;2.00;;;;;;;20.23;100.00;95395.66;6274093;22;20181;-81
2023/08/27 04:09:33;;;;;;;3.25;1.98;;;;;;;20.23;100.00;95390.41;6273911;22;20200;-81
2023/08/27 04:12:01;;;;;;;3.08;2.00;;;;;;;20.17;100.00;95391.41;6274022;22;20231;-81
2023/08/27 04:14:29;;;;;;;2.35;1.90;;;;;;;20.17;100.00;95394.81;6273482;22;20177;-82
2023/08/27 04:16:55;;;;;;;3.70;2.05;;;;;;;20.18;98.91;95398.22;6273482;22;20176;-81
2023/08/27 04:19:21;;;;;;;2.08;1.80;;;;;;;20.18;97.72;95382.53;6273247;22;20207;-81
2023/08/27 04:21:48;;;;;;;2.20;1.90;;;;;;;20.22;98.92;95399.28;6274093;22;20229;-81
2023/08/27 04:24:14;;;;;;;5.95;3.60;;;;;;;20.21;98.98;95398.50;6273727;22;20647;-81
2023/08/27 04:26:41;;;;;;;4.90;3.35;;;;;;;20.19;98.78;95400.59;6273447;22;20176;-81
2023/08/27 04:29:09;;;;;;;2.97;2.40;;;;;;;20.17;99.07;95401.84;6273646;22;20550;-81
2023/08/27 04:31:35;;;;;;;3.03;1.60;;;;;;;20.18;98.80;95383.31;6273509;22;20176;-81
2023/08/27 04:34:01;;;;;;;3.72;2.22;;;;;;;20.20;98.69;95375.25;6273501;22;20200;-81
2023/08/27 04:36:28;;;;;;;3.53;2.15;;;;;;;20.12;100.00;95380.88;6272802;22;20172;-80
2023/08/27 04:38:54;;;;;;;2.30;2.10;;;;;;;20.17;99.55;95386.19;6274038;22;20632;-81
2023/08/27 04:41:20;;;;;;;3.35;1.75;;;;;;;20.18;99.56;95390.38;6273982;22;20226;-81
2023/08/27 04:43:47;;;;;;;3.05;1.88;;;;;;;20.13;100.00;95398.13;6273598;22;20180;-81
2023/08/27 04:46:15;;;;;;;1.98;1.80;;;;;;;20.17;100.00;95394.81;6273670;22;20246;-82
2023/08/27 04:48:41;;;;;;;1.88;1.70;;;;;;;20.14;99.08;95395.28;6273867;22;20222;-81
2023/08/27 04:51:07;;;;;;;2.17;1.80;;;;;;;20.06;100.00;95405.34;6273405;22;20227;-81
2023/08/27 04:53:34;;;;;;;3.03;1.70;;;;;;;20.15;99.96;95406.53;6273458;22;20675;-81
2023/08/27 04:56:00;;;;;;;2.42;1.80;;;;;;;20.12;100.00;95407.81;6273334;22;20160;-80
2023/08/27 04:58:27;;;;;;;2.58;1.90;;;;;;;20.12;99.26;95392.13;6273337;22;20176;-81
2023/08/27 05:00:54;;;;;;;1.90;1.80;;;;;;;20.15;97.95;95396.88;6272170;22;20226;-83
2023/08/27 05:03:22;;;;;;;3.17;2.08;;;;;;;20.13;98.51;95406.78;6273324;22;20500;-83
2023/08/27 05:05:52;;;;;;;2.30;2.10;;;;;;;20.10;99.55;95428.16;6272796;22;20177;-83
2023/08/27 05:08:18;;;;;;;1.80;1.65;;;;;;;20.13;98.04;95414.63;6272312;22;20271;-83
2023/08/27 05:10:45;;;;;;;2.33;1.80;;;;;;;20.09;98.95;95431.81;6272698;22;20199;-83
2023/08/27 05:13:11;;;;;;;2.75;2.03;;;;;;;20.10;99.88;95443.06;6272873;22;20203;-83
2023/08/27 05:15:38;;;;;;;3.65;1.70;;;;;;;20.09;98.59;95418.72;6273087;22;20230;-83
2023/08/27 05:18:05;;;;;;;2.28;2.00;;;;;;;20.10;98.68;95412.47;6273533;22;20511;-83
2023/08/27 05:20:32;;;;;;;2.50;1.73;;;;;;;20.04;99.08;95416.03;6273656;22;20203;-83
2023/08/27 05:22:59;;;;;;;3.75;1.70;;;;;;;20.08;99.07;95421.59;6272992;22;20226;-83
2023/08/27 05:25:26;;;;;;;2.67;1.92;;;;;;;20.10;100.00;95435.22;6273023;22;20191;-83
2023/08/27 05:27:52;;;;;;;2.17;1.80;;;;;;;20.10;99.89;95433.38;6272403;22;20647;-83
2023/08/27 05:30:19;;;;;;;1.60;1.50;;;;;;;20.03;100.00;95456.28;6270878;22;20203;-84
2023/08/27 05:32:45;;;;;;;2.28;1.92;;;;;;;20.08;100.00;95452.94;6271174;22;20196;-83
2023/08/27 05:35:11;;;;;;;2.08;1.88;;;;;;;20.10;99.62;95441.22;6271228;22;20803;-83
2023/08/27 05:37:39;;;;;;;4.00;1.90;;;;;;;20.06;100.00;95450.56;6271110;22;20588;-81
2023/08/27 05:40:08;;;;;;;4.50;1.95;;;;;;;20.02;100.00;95445.03;6271895;22;20192;-81
2023/08/27 05:42:35;;;;;;;1.90;1.80;;;;;;;20.09;100.00;95444.09;6272860;22;20259;-80
2023/08/27 05:45:01;;;;;;;3.00;1.88;;;;;;;20.07;100.00;95457.38;6271743;22;20176;-81
2023/08/27 05:47:29;;;;;;;2.10;1.90;;;;;;;19.98;100.00;95459.63;6272706;22;20255;-81
2023/08/27 05:49:55;;;;;;;2.55;2.00;;;;;;;20.06;100.00;95458.41;6273027;22;20195;-81
2023/08/27 05:52:22;;;;;;;2.22;2.00;;;;;;;20.06;100.00;95449.78;6273137;22;20171;-81
2023/08/27 05:54:49;;;;;;;2.10;1.90;;;;;;;20.08;100.00;95455.56;6272946;22;20176;-81
2023/08/27 05:57:16;;;;;;;3.70;2.00;;;;;;;20.11;100.00;95448.03;6272890;22;20172;-81
2023/08/27 05:59:42;;;;;;;2.40;1.95;;;;;;;20.16;100.00;95440.28;6272768;22;20247;-81
2023/08/27 06:02:10;;;;;;;2.55;1.83;;;;;;;20.17;100.00;95446.31;6272493;22;20180;-81
2023/08/27 06:04:36;;;;;;;2.10;1.90;;;;;;;20.11;100.00;95461.13;6272839;22;20183;-82
2023/08/27 06:07:03;;;;;;;2.65;1.98;;;;;;;20.11;100.00;95479.41;6272650;22;20179;-81
2023/08/27 06:09:30;;;;;;;3.47;2.22;;;;;;;20.12;100.00;95478.38;6272385;22;20837;-80
2023/08/27 06:11:58;;;;;;;2.00;1.90;;;;;;;20.14;100.00;95475.53;6272444;22;20172;-81
2023/08/27 06:14:24;;;;;;;3.53;2.10;;;;;;;20.13;100.00;95484.41;6271138;22;20200;-82
2023/08/27 06:16:51;;;;;;;11.93;2.30;;;;;;;20.12;100.00;95486.22;6272155;22;20172;-81
2023/08/27 06:19:17;;;;;;;2.00;1.90;;;;;;;20.06;100.00;95500.25;6272134;22;20200;-82
2023/08/27 06:21:44;;;;;;;1.83;1.70;;;;;;;20.01;100.00;95500.94;6271553;22;20180;-82
2023/08/27 06:24:10;;;;;;;1.73;1.63;;;;;;;20.05;100.00;95498.66;6272831;22;20216;-81
2023/08/27 06:26:37;;;;;;;1.75;1.30;;;;;;;20.01;100.00;95492.34;6272274;22;20176;-82
2023/08/27 06:29:05;;;;;;;1.70;1.60;;;;;;;20.07;100.00;95498.41;6271695;22;20176;-82
2023/08/27 06:31:32;;;;;;;2.78;1.77;;;;;;;20.06;100.00;95496.84;6272407;22;20183;-81
2023/08/27 06:33:58;;;;;;;1.83;1.58;;;;;;;19.98;100.00;95477.91;6272095;22;20536;-81
2023/08/27 06:36:25;;;;;;;1.55;1.45;;;;;;;19.97;100.00;95472.94;6271604;22;20180;-82
2023/08/27 06:38:51;;;;;;;1.92;1.60;;;;;;;19.91;100.00;95463.41;6272271;22;20194;-81
2023/08/27 06:41:18;;;;;;;2.70;1.85;;;;;;;19.84;100.00;95473.22;6272758;22;20176;-80
2023/08/27 06:43:44;;;;;;;2.08;1.65;;;;;;;19.84;100.00;95471.41;6271809;22;20573;-81
2023/08/27 06:46:12;;;;;;;2.22;1.70;;;;;;;19.83;100.00;95466.41;6271524;22;20183;-81
2023/08/27 06:48:38;;;;;;;2.65;1.58;;;;;;;19.88;100.00;95466.50;6272463;22;20180;-82
2023/08/27 06:51:05;;;;;;;1.67;1.55;;;;;;;19.88;100.00;95471.72;6271972;22;20200;-81
2023/08/27 06:53:31;;;;;;;1.58;1.48;;;;;;;19.87;100.00;95476.16;6271546;22;20192;-81
2023/08/27 06:55:57;;;;;;;3.42;1.50;;;;;;;19.84;100.00;95475.84;6271726;22;20253;-81
2023/08/27 06:58:24;;;;;;;3.25;1.88;;;;;;;19.87;100.00;95473.53;6271887;22;20203;-81
2023/08/27 07:00:52;;;;;;;2.33;1.83;;;;;;;19.75;100.00;95491.13;6270339;22;20196;-81
2023/08/27 07:03:20;;;;;;;3.08;1.80;;;;;;;19.81;100.00;95486.78;6271563;22;20221;-81
2023/08/27 07:05:46;;;;;;;1.80;1.65;;;;;;;19.78;100.00;95489.88;6271967;22;20176;-81
2023/08/27 07:08:13;;;;;;;2.22;1.70;;;;;;;19.84;100.00;95486.28;6271775;22;20643;-82
2023/08/27 07:10:39;;;;;;;2.10;1.70;;;;;;;19.81;100.00;95468.50;6271604;22;20274;-81
2023/08/27 07:13:05;;;;;;;2.15;1.70;;;;;;;19.89;100.00;95468.88;6271298;22;20203;-82
2023/08/27 07:15:32;;;;;;;2.33;1.80;;;;;;;19.99;100.00;95442.91;6270883;22;20176;-82
2023/08/27 07:17:59;;;;;;;1.80;1.70;;;;;;;20.06;100.00;95436.72;6271232;22;20555;-81
2023/08/27 07:20:27;;;;;;;1.90;1.77;;;;;;;20.07;100.00;95412.94;6272363;22;20196;-81
2023/08/27 07:22:53;;;;;;;2.60;1.67;;;;;;;20.02;100.00;95437.19;6271995;22;20180;-81
2023/08/27 07:25:21;;;;;;;3.58;1.90;;;;;;;20.10;100.00;95443.84;6271535;22;20696;-81
2023/08/27 07:27:47;;;;;;;2.47;1.63;;;;;;;20.17;100.00;95444.47;6271505;22;20640;-81
2023/08/27 07:30:14;;;;;;;4.32;2.13;;;;;;;20.13;100.00;95448.59;6271266;22;20200;-81
2023/08/27 07:32:40;;;;;;;2.30;2.08;;;;;;;20.18;100.00;95451.28;6272316;22;20172;-83
2023/08/27 07:35:07;;;;;;;2.10;1.90;;;;;;;20.19;100.00;95452.88;6274412;22;20176;-83
2023/08/27 07:37:35;;;;;;;2.00;1.80;;;;;;;20.27;100.00;95457.69;6274418;22;20255;-83
2023/08/27 07:40:03;;;;;;;1.95;1.77;;;;;;;20.25;100.00;95454.50;6273717;22;20192;-83
2023/08/27 07:42:30;;;;;;;1.83;1.63;;;;;;;20.26;99.25;95429.97;6275602;22;20172;-84
2023/08/27 07:44:56;;;;;;;2.22;1.60;;;;;;;20.27;98.91;95422.91;6272518;22;20342;-83
2023/08/27 07:47:22;;;;;;;1.98;1.55;;;;;;;20.21;98.64;95435.09;6274244;22;20183;-83
2023/08/27 07:49:49;;;;;;;2.00;1.80;;;;;;;20.21;99.47;95442.16;6274097;22;20196;-84
2023/08/27 07:52:15;;;;;;;3.08;1.70;;;;;;;20.22;100.00;95460.22;6273591;22;20180;-83
2023/08/27 07:54:43;;;;;;;1.70;1.60;;;;;;;20.19;100.00;95454.69;6273079;22;20192;-84
2023/08/27 07:57:10;;;;;;;1.95;1.60;;;;;;;20.16;100.00;95453.34;6273105;22;20227;-83
2023/08/27 07:59:36;;;;;;;1.58;1.48;;;;;;;20.16;99.79;95437.66;6272986;22;20694;-83
2023/08/27 08:02:03;;;;;;;1.75;1.50;;;;;;;20.20;100.00;95446.63;6272945;22;20176;-83
2023/08/27 08:04:29;;;;;;;1.60;1.50;;;;;;;20.22;100.00;95441.91;6273820;22;20172;-84
2023/08/27 08:06:55;;;;;;;1.88;1.70;;;;;;;20.25;100.00;95433.59;6272188;22;20172;-84
2023/08/27 08:09:22;;;;;;;2.03;1.45;;;;;;;20.21;100.00;95431.69;6275203;22;20196;-82
2023/08/27 08:11:50;;;;;;;2.58;1.33;;;;;;;20.19;100.00;95442.41;6275486;22;20184;-80
2023/08/27 08:14:16;;;;;;;1.38;1.27;;;;;;;20.20;100.00;95459.69;6275660;22;20246;-80
2023/08/27 08:16:43;;;;;;;2.63;1.45;;;;;;;20.30;100.00;95459.81;6275773;22;20172;-80
2023/08/27 08:19:10;;;;;;;2.08;1.55;;;;;;;20.55;100.00;95448.16;6277033;22;20590;-80
2023/08/27 08:21:36;;;;;;;1.40;1.30;;;;;;;20.63;100.00;95439.88;6275584;22;20636;-80
2023/08/27 08:24:03;;;;;;;1.52;1.42;;;;;;;20.65;98.55;95419.50;6276378;22;20847;-80
2023/08/27 08:26:29;;;;;;;1.77;1.50;;;;;;;20.62;97.52;95405.06;6276149;22;20202;-80
2023/08/27 08:28:57;;;;;;;1.60;1.40;;;;;;;20.60;97.51;95404.53;6275170;22;20658;-80
2023/08/27 08:31:23;;;;;;;1.40;1.30;;;;;;;20.53;97.30;95400.53;6278596;22;20177;-80
2023/08/27 08:33:50;;;;;;;1.90;1.40;;;;;;;20.52;97.13;95406.78;6276873;22;20249;-80
2023/08/27 08:36:16;;;;;;;1.55;1.30;;;;;;;20.55;96.76;95398.47;6276683;22;20179;-80
2023/08/27 08:38:43;;;;;;;1.92;1.50;;;;;;;20.52;96.30;95397.13;6276131;22;20176;-79
2023/08/27 08:41:11;;;;;;;1.67;1.27;;;;;;;20.52;96.81;95404.97;6277456;22;20699;-79
2023/08/27 08:43:43;;;;;;;1.27;1.17;;;;;;;20.49;96.11;95407.28;6276405;22;20238;-80
2023/08/27 08:46:15;;;;;;;1.48;1.30;;;;;;;20.49;96.89;95413.28;6277395;22;20157;-80
2023/08/27 08:48:42;;;;;;;1.50;1.40;;;;;;;20.47;97.65;95425.03;6276926;22;20211;-79
2023/08/27 08:51:10;;;;;;;2.60;1.60;;;;;;;20.48;98.73;95440.47;6276726;22;20196;-80
2023/08/27 08:53:40;;;;;;;1.30;1.20;;;;;;;20.44;96.58;95415.03;6274425;22;20196;-80
2023/08/27 08:56:09;;;;;;;2.35;1.25;;;;;;;20.45;97.23;95421.84;6273734;22;20168;-81
2023/08/27 08:58:37;;;;;;;1.55;1.35;;;;;;;20.45;96.70;95416.63;6272860;22;20180;-81
2023/08/27 09:01:04;;;;;;;2.63;1.52;;;;;;;20.42;96.34;95407.44;6272511;22;20196;-81
2023/08/27 09:03:33;;;;;;;2.10;1.20;;;;;;;20.43;96.46;95424.72;6273028;22;20230;-81
2023/08/27 09:06:01;;;;;;;1.20;1.10;;;;;;;20.32;95.49;95407.28;6275029;22;20843;-83
2023/08/27 09:08:29;;;;;;;2.17;1.35;;;;;;;20.26;97.45;95429.97;6273089;22;20176;-82
2023/08/27 09:10:57;;;;;;;1.85;1.40;;;;;;;20.20;98.64;95448.44;6270868;22;20207;-83
2023/08/27 09:13:24;;;;;;;1.42;1.10;;;;;;;20.21;98.92;95453.41;6271540;22;20180;-83
2023/08/27 09:15:50;;;;;;;1.20;1.08;;;;;;;20.20;99.44;95454.47;6271864;22;20568;-83
2023/08/27 09:18:18;;;;;;;1.48;1.23;;;;;;;20.17;99.87;95459.38;6271488;22;20729;-83
2023/08/27 09:20:46;;;;;;;1.20;1.02;;;;;;;20.09;98.40;95437.03;6272994;22;20227;-82
2023/08/27 09:23:13;;;;;;;1.25;1.10;;;;;;;20.05;98.52;95438.53;6272832;22;20176;-81
2023/08/27 09:25:39;;;;;;;2.05;1.00;;;;;;;20.00;98.42;95444.50;6272887;22;20180;-81
2023/08/27 09:28:06;;;;;;;1.38;1.27;;;;;;;20.05;99.43;95463.88;6272492;22;20179;-81
2023/08/27 09:30:33;;;;;;;1.10;1.10;;;;;;;19.90;100.00;95478.31;6272466;22;20196;-83
2023/08/27 09:33:00;;;;;;;3.25;1.23;;;;;;;19.81;99.76;95471.09;6271413;22;20176;-84
2023/08/27 09:35:36;;;;;;;1.10;1.00;;;;;;;19.81;99.12;95484.16;6271905;22;20196;-84
2023/08/27 09:38:04;;;;;;;1.35;1.20;;;;;;;19.76;100.00;95497.94;6271844;22;20159;-84
2023/08/27 09:40:30;;;;;;;1.48;1.20;;;;;;;19.75;99.17;95485.09;6271564;22;20266;-84
2023/08/27 09:43:04;;;;;;;5.15;4.68;;;;;;;19.67;100.00;95492.28;6270291;22;20176;-83
2023/08/27 09:45:31;;;;;;;4.43;3.88;;;;;;;19.70;100.00;95496.25;6271486;22;20457;-84
2023/08/27 09:47:58;;;;;;;1.85;1.65;;;;;;;19.67;100.00;95499.34;6271545;22;20183;-84
2023/08/27 09:50:24;;;;;;;1.73;1.50;;;;;;;19.68;100.00;95503.53;6272004;22;20199;-83
2023/08/27 09:52:51;;;;;;;1.40;1.08;;;;;;;19.61;99.61;95461.91;6271550;22;20176;-83
2023/08/27 09:55:19;;;;;;;1.40;1.30;;;;;;;19.48;95.93;95427.41;6271429;22;20218;-84
2023/08/27 09:57:49;;;;;;;2.15;1.23;;;;;;;19.42;98.30;95447.44;6272666;22;20258;-83
2023/08/27 10:00:17;;;;;;;2.22;1.40;;;;;;;19.40;96.71;95426.00;6271018;22;20204;-83
2023/08/27 10:02:44;;;;;;;1.48;1.20;;;;;;;19.26;94.74;95396.75;6273958;22;20176;-84
2023/08/27 10:05:11;;;;;;;2.58;1.40;;;;;;;19.25;95.10;95389.94;6271885;22;20203;-83
2023/08/27 10:07:37;;;;;;;1.25;1.15;;;;;;;19.25;96.33;95394.38;6272174;22;20176;-83
2023/08/27 10:10:06;;;;;;;1.65;1.20;;;;;;;19.27;98.03;95424.44;6271718;22;20196;-83
2023/08/27 10:12:35;;;;;;;1.38;1.25;;;;;;;19.24;98.01;95424.91;6271189;22;20168;-83
2023/08/27 10:15:04;;;;;;;1.88;1.23;;;;;;;19.27;97.00;95415.81;6271518;22;20196;-84
2023/08/27 10:17:32;;;;;;;1.50;1.40;;;;;;;19.21;97.85;95424.59;6271036;22;20234;-83
2023/08/27 10:20:01;;;;;;;2.05;1.40;;;;;;;19.20;98.24;95425.63;6271640;22;20565;-83
2023/08/27 10:22:28;;;;;;;2.30;1.70;;;;;;;19.26;98.52;95433.28;6271544;22;20195;-83
2023/08/27 10:24:56;;;;;;;1.60;1.50;;;;;;;19.28;98.47;95423.41;6271136;22;20176;-83
2023/08/27 10:27:23;;;;;;;2.05;1.83;;;;;;;19.25;97.65;95402.19;6271766;22;20176;-83
2023/08/27 10:29:52;;;;;;;4.32;1.92;;;;;;;19.27;98.40;95408.00;6271298;22;20215;-83
2023/08/27 10:32:18;;;;;;;5.93;1.85;;;;;;;19.39;97.84;95405.34;6271098;22;20172;-83
2023/08/27 10:34:45;;;;;;;3.38;2.47;;;;;;;19.42;98.35;95410.88;6271555;22;20228;-83
2023/08/27 10:37:13;;;;;;;2.33;1.55;;;;;;;19.39;94.68;95364.34;6271757;22;20638;-83
2023/08/27 10:39:41;;;;;;;2.75;1.35;;;;;;;19.39;93.99;95353.13;6271674;22;20251;-84
2023/08/27 10:42:07;;;;;;;2.88;2.35;;;;;;;19.35;94.48;95368.44;6272228;22;20241;-83
2023/08/27 10:44:33;;;;;;;5.18;4.72;;;;;;;19.32;94.77;95374.94;6270490;22;20176;-83
2023/08/27 10:47:13;;;;;;;12.38;6.80;;;;;;;19.27;95.79;95381.88;6271042;22;20665;-83
2023/08/27 10:49:43;;;;;;;3.10;2.20;;;;;;;19.30;94.88;95379.59;6270883;22;20204;-83
2023/08/27 10:52:17;;;;;;;2.67;2.20;;;;;;;19.25;96.75;95396.97;6271062;22;20172;-83
2023/08/27 10:54:46;;;;;;;2.22;1.90;;;;;;;19.30;94.36;95379.59;6270611;22;20195;-84
2023/08/27 10:57:22;;;;;;;2.53;1.50;;;;;;;19.33;94.69;95376.53;6271606;22;20589;-84
2023/08/27 10:59:49;;;;;;;1.40;1.30;;;;;;;19.39;94.85;95387.06;6271165;22;20196;-83
2023/08/27 11:02:17;;;;;;;1.45;1.35;;;;;;;19.39;94.49;95382.63;6269704;22;20670;-83
2023/08/27 11:04:48;;;;;;;1.52;1.17;;;;;;;19.42;93.96;95382.16;6269481;22;20172;-84
2023/08/27 11:07:17;;;;;;;1.48;1.20;;;;;;;19.46;92.27;95369.41;6271643;22;20161;-83
2023/08/27 11:09:48;;;;;;;6.97;1.50;;;;;;;19.43;94.68;95399.41;6273246;22;20226;-83
2023/08/27 11:12:24;;;;;;;1.48;1.25;;;;;;;19.42;93.35;95386.59;6273927;22;20179;-83
2023/08/27 11:14:50;;;;;;;1.60;1.25;;;;;;;19.42;92.86;95376.94;6272766;22;20227;-84
2023/08/27 11:17:27;;;;;;;1.17;1.10;;;;;;;19.53;94.20;95396.97;6273298;22;20180;-83
2023/08/27 11:19:54;;;;;;;3.40;3.10;;;;;;;19.50;93.72;95386.22;6272537;22;20192;-83
2023/08/27 11:22:23;;;;;;;11.55;10.40;;;;;;;19.50;93.71;95376.56;6272842;22;20168;-84
2023/08/27 11:24:52;;;;;;;1.80;1.70;;;;;;;19.38;93.66;95377.63;6272022;22;20251;-83
2023/08/27 11:27:19;;;;;;;2.67;1.10;;;;;;;19.40;95.09;95396.47;6273447;22;20237;-83
2023/08/27 11:29:47;;;;;;;1.58;1.40;;;;;;;19.37;94.55;95404.78;6274123;22;20192;-84
2023/08/27 11:32:14;;;;;;;2.97;1.23;;;;;;;19.43;94.87;95406.44;6273133;22;20173;-84